sensor_id;sensor_type;location;lat;lon;timestamp;P1;durP1;ratioP1;P2;durP2;ratioP2
73100;SDS011;61288;53.446;-2.266;2023-06-14T00:13:42;10.05;;;3.60;;
73100;SDS011;61288;53.446;-2.266;2023-06-14T00:19:47;9.43;;;3.50;;
73100;SDS011;61288;53.446;-2.266;2023-06-14T00:47:37;12.50;;;3.60;;
73100;SDS011;61288;53.446;-2.266;2023-06-14T00:50:08;11.70;;;3.58;;
73100;SDS011;61288;53.446;-2.266;2023-06-14T00:52:38;10.90;;;3.80;;
73100;SDS011;61288;53.446;-2.266;2023-06-14T00:55:05;9.73;;;3.80;;
73100;SDS011;61288;53.446;-2.266;2023-06-14T00:57:31;10.73;;;3.40;;
73100;SDS011;61288;53.446;-2.266;2023-06-14T00:59:57;9.38;;;3.67;;
73100;SDS011;61288;53.446;-2.266;2023-06-14T01:02:25;9.77;;;3.58;;
73100;SDS011;61288;53.446;-2.266;2023-06-14T01:04:50;11.60;;;3.60;;
73100;SDS011;61288;53.446;-2.266;2023-06-14T01:13:24;10.15;;;3.88;;
73100;SDS011;61288;53.446;-2.266;2023-06-14T01:16:02;11.05;;;3.63;;
73100;SDS011;61288;53.446;-2.266;2023-06-14T01:18:34;14.80;;;3.90;;
73100;SDS011;61288;53.446;-2.266;2023-06-14T01:21:01;12.60;;;3.90;;
73100;SDS011;61288;53.446;-2.266;2023-06-14T01:23:30;8.85;;;3.50;;
73100;SDS011;61288;53.446;-2.266;2023-06-14T01:26:02;10.07;;;3.30;;
73100;SDS011;61288;53.446;-2.266;2023-06-14T01:28:30;11.18;;;3.75;;
73100;SDS011;61288;53.446;-2.266;2023-06-14T01:31:02;12.40;;;3.38;;
73100;SDS011;61288;53.446;-2.266;2023-06-14T01:33:29;10.38;;;3.70;;
73100;SDS011;61288;53.446;-2.266;2023-06-14T01:36:04;9.70;;;3.63;;
73100;SDS011;61288;53.446;-2.266;2023-06-14T01:38:31;10.13;;;3.30;;
73100;SDS011;61288;53.446;-2.266;2023-06-14T01:40:58;10.18;;;3.30;;
73100;SDS011;61288;53.446;-2.266;2023-06-14T01:43:30;10.07;;;3.65;;
73100;SDS011;61288;53.446;-2.266;2023-06-14T01:45:56;9.82;;;3.35;;
73100;SDS011;61288;53.446;-2.266;2023-06-14T01:48:22;10.40;;;3.08;;
73100;SDS011;61288;53.446;-2.266;2023-06-14T01:50:49;8.38;;;3.15;;
73100;SDS011;61288;53.446;-2.266;2023-06-14T01:53:21;11.55;;;3.47;;
73100;SDS011;61288;53.446;-2.266;2023-06-14T01:55:47;11.13;;;3.17;;
73100;SDS011;61288;53.446;-2.266;2023-06-14T01:58:13;10.23;;;3.25;;
73100;SDS011;61288;53.446;-2.266;2023-06-14T02:00:46;9.98;;;3.35;;
73100;SDS011;61288;53.446;-2.266;2023-06-14T02:03:12;9.30;;;3.35;;
73100;SDS011;61288;53.446;-2.266;2023-06-14T02:05:38;9.90;;;3.38;;
73100;SDS011;61288;53.446;-2.266;2023-06-14T02:08:05;8.15;;;2.70;;
73100;SDS011;61288;53.446;-2.266;2023-06-14T02:10:31;8.13;;;2.95;;
73100;SDS011;61288;53.446;-2.266;2023-06-14T02:12:56;7.53;;;2.85;;
73100;SDS011;61288;53.446;-2.266;2023-06-14T02:15:22;8.43;;;2.83;;
73100;SDS011;61288;53.446;-2.266;2023-06-14T02:17:54;6.93;;;2.60;;
73100;SDS011;61288;53.446;-2.266;2023-06-14T02:20:19;7.55;;;3.10;;
73100;SDS011;61288;53.446;-2.266;2023-06-14T02:22:45;9.70;;;2.95;;
73100;SDS011;61288;53.446;-2.266;2023-06-14T02:25:10;8.13;;;2.95;;
73100;SDS011;61288;53.446;-2.266;2023-06-14T02:27:36;10.60;;;2.92;;
73100;SDS011;61288;53.446;-2.266;2023-06-14T02:30:01;8.82;;;3.00;;
73100;SDS011;61288;53.446;-2.266;2023-06-14T02:32:27;8.55;;;2.95;;
73100;SDS011;61288;53.446;-2.266;2023-06-14T02:34:53;8.70;;;3.00;;
73100;SDS011;61288;53.446;-2.266;2023-06-14T02:37:19;8.73;;;3.33;;
73100;SDS011;61288;53.446;-2.266;2023-06-14T02:39:45;9.55;;;3.28;;
73100;SDS011;61288;53.446;-2.266;2023-06-14T02:42:11;11.23;;;3.33;;
73100;SDS011;61288;53.446;-2.266;2023-06-14T02:44:41;8.23;;;3.13;;
73100;SDS011;61288;53.446;-2.266;2023-06-14T02:47:08;9.45;;;2.83;;
73100;SDS011;61288;53.446;-2.266;2023-06-14T02:49:34;7.55;;;2.42;;
73100;SDS011;61288;53.446;-2.266;2023-06-14T02:52:00;9.95;;;3.03;;
73100;SDS011;61288;53.446;-2.266;2023-06-14T02:54:25;8.88;;;3.20;;
73100;SDS011;61288;53.446;-2.266;2023-06-14T02:56:54;9.05;;;2.70;;
73100;SDS011;61288;53.446;-2.266;2023-06-14T02:59:41;8.82;;;2.90;;
73100;SDS011;61288;53.446;-2.266;2023-06-14T03:05:57;11.93;;;2.90;;
73100;SDS011;61288;53.446;-2.266;2023-06-14T03:12:34;8.82;;;3.05;;
73100;SDS011;61288;53.446;-2.266;2023-06-14T03:38:05;11.13;;;2.72;;
73100;SDS011;61288;53.446;-2.266;2023-06-14T03:44:15;7.00;;;2.38;;
73100;SDS011;61288;53.446;-2.266;2023-06-14T03:50:32;7.55;;;2.60;;
73100;SDS011;61288;53.446;-2.266;2023-06-14T03:52:59;7.15;;;2.55;;
73100;SDS011;61288;53.446;-2.266;2023-06-14T03:55:32;7.85;;;2.53;;
73100;SDS011;61288;53.446;-2.266;2023-06-14T03:58:01;8.00;;;2.60;;
73100;SDS011;61288;53.446;-2.266;2023-06-14T04:05:12;7.72;;;2.78;;
73100;SDS011;61288;53.446;-2.266;2023-06-14T04:21:21;6.15;;;2.58;;
73100;SDS011;61288;53.446;-2.266;2023-06-14T04:23:49;6.80;;;2.60;;
73100;SDS011;61288;53.446;-2.266;2023-06-14T04:30:23;12.88;;;2.75;;
73100;SDS011;61288;53.446;-2.266;2023-06-14T04:33:29;9.32;;;3.03;;
73100;SDS011;61288;53.446;-2.266;2023-06-14T04:36:07;7.88;;;2.88;;
73100;SDS011;61288;53.446;-2.266;2023-06-14T04:39:23;8.18;;;2.92;;
73100;SDS011;61288;53.446;-2.266;2023-06-14T04:41:50;8.93;;;2.80;;
73100;SDS011;61288;53.446;-2.266;2023-06-14T04:44:25;15.00;;;3.72;;
73100;SDS011;61288;53.446;-2.266;2023-06-14T04:52:53;7.63;;;3.10;;
73100;SDS011;61288;53.446;-2.266;2023-06-14T04:58:35;8.75;;;2.60;;
73100;SDS011;61288;53.446;-2.266;2023-06-14T05:01:14;10.48;;;2.88;;
73100;SDS011;61288;53.446;-2.266;2023-06-14T05:03:48;9.27;;;3.13;;
73100;SDS011;61288;53.446;-2.266;2023-06-14T05:06:18;7.82;;;2.80;;
73100;SDS011;61288;53.446;-2.266;2023-06-14T05:08:44;10.02;;;2.88;;
73100;SDS011;61288;53.446;-2.266;2023-06-14T05:11:20;7.97;;;2.40;;
73100;SDS011;61288;53.446;-2.266;2023-06-14T05:13:49;6.45;;;2.65;;
73100;SDS011;61288;53.446;-2.266;2023-06-14T05:19:11;7.95;;;2.50;;
73100;SDS011;61288;53.446;-2.266;2023-06-14T05:21:37;8.65;;;2.70;;
73100;SDS011;61288;53.446;-2.266;2023-06-14T05:24:21;6.97;;;2.33;;
73100;SDS011;61288;53.446;-2.266;2023-06-14T05:26:50;7.18;;;2.40;;
73100;SDS011;61288;53.446;-2.266;2023-06-14T05:29:21;8.48;;;2.80;;
73100;SDS011;61288;53.446;-2.266;2023-06-14T05:31:58;8.90;;;2.50;;
73100;SDS011;61288;53.446;-2.266;2023-06-14T05:34:39;5.53;;;2.10;;
73100;SDS011;61288;53.446;-2.266;2023-06-14T05:37:47;7.25;;;2.20;;
73100;SDS011;61288;53.446;-2.266;2023-06-14T05:40:20;6.38;;;2.35;;
73100;SDS011;61288;53.446;-2.266;2023-06-14T05:42:46;8.52;;;2.60;;
73100;SDS011;61288;53.446;-2.266;2023-06-14T05:45:12;12.35;;;3.80;;
73100;SDS011;61288;53.446;-2.266;2023-06-14T05:47:44;10.82;;;3.08;;
73100;SDS011;61288;53.446;-2.266;2023-06-14T05:50:11;7.80;;;2.65;;
73100;SDS011;61288;53.446;-2.266;2023-06-14T05:52:36;7.22;;;2.53;;
73100;SDS011;61288;53.446;-2.266;2023-06-14T05:55:02;8.85;;;2.50;;
73100;SDS011;61288;53.446;-2.266;2023-06-14T05:57:29;9.35;;;2.50;;
73100;SDS011;61288;53.446;-2.266;2023-06-14T06:00:04;8.30;;;2.83;;
73100;SDS011;61288;53.446;-2.266;2023-06-14T06:02:46;9.45;;;2.30;;
73100;SDS011;61288;53.446;-2.266;2023-06-14T06:05:12;8.98;;;2.80;;
73100;SDS011;61288;53.446;-2.266;2023-06-14T06:07:38;8.07;;;2.83;;
73100;SDS011;61288;53.446;-2.266;2023-06-14T06:10:13;9.75;;;2.72;;
73100;SDS011;61288;53.446;-2.266;2023-06-14T06:12:38;8.55;;;2.70;;
73100;SDS011;61288;53.446;-2.266;2023-06-14T06:15:04;8.15;;;2.70;;
73100;SDS011;61288;53.446;-2.266;2023-06-14T06:17:30;9.50;;;2.67;;
73100;SDS011;61288;53.446;-2.266;2023-06-14T06:19:55;9.80;;;2.50;;
73100;SDS011;61288;53.446;-2.266;2023-06-14T06:22:21;7.15;;;2.45;;
73100;SDS011;61288;53.446;-2.266;2023-06-14T06:24:46;12.02;;;3.53;;
73100;SDS011;61288;53.446;-2.266;2023-06-14T06:27:21;10.45;;;2.75;;
73100;SDS011;61288;53.446;-2.266;2023-06-14T06:29:47;8.55;;;2.63;;
73100;SDS011;61288;53.446;-2.266;2023-06-14T06:32:24;8.75;;;2.40;;
73100;SDS011;61288;53.446;-2.266;2023-06-14T06:34:56;8.20;;;2.78;;
73100;SDS011;61288;53.446;-2.266;2023-06-14T06:37:25;10.32;;;2.88;;
73100;SDS011;61288;53.446;-2.266;2023-06-14T06:39:57;9.40;;;2.92;;
73100;SDS011;61288;53.446;-2.266;2023-06-14T06:42:31;7.10;;;2.38;;
73100;SDS011;61288;53.446;-2.266;2023-06-14T06:44:57;8.80;;;2.60;;
73100;SDS011;61288;53.446;-2.266;2023-06-14T06:47:23;7.45;;;2.55;;
73100;SDS011;61288;53.446;-2.266;2023-06-14T06:49:50;9.25;;;2.50;;
73100;SDS011;61288;53.446;-2.266;2023-06-14T06:55:11;7.75;;;2.55;;
73100;SDS011;61288;53.446;-2.266;2023-06-14T06:57:38;8.70;;;2.80;;
73100;SDS011;61288;53.446;-2.266;2023-06-14T07:00:03;6.82;;;2.15;;
73100;SDS011;61288;53.446;-2.266;2023-06-14T07:02:34;8.68;;;2.60;;
73100;SDS011;61288;53.446;-2.266;2023-06-14T07:05:00;10.18;;;2.60;;
73100;SDS011;61288;53.446;-2.266;2023-06-14T07:07:34;9.98;;;2.65;;
73100;SDS011;61288;53.446;-2.266;2023-06-14T07:10:05;9.07;;;2.65;;
73100;SDS011;61288;53.446;-2.266;2023-06-14T07:13:00;6.82;;;2.22;;
73100;SDS011;61288;53.446;-2.266;2023-06-14T07:15:25;7.85;;;2.60;;
73100;SDS011;61288;53.446;-2.266;2023-06-14T07:17:51;9.30;;;2.50;;
73100;SDS011;61288;53.446;-2.266;2023-06-14T07:20:18;10.20;;;2.55;;
73100;SDS011;61288;53.446;-2.266;2023-06-14T07:22:43;9.23;;;2.60;;
73100;SDS011;61288;53.446;-2.266;2023-06-14T07:25:19;9.57;;;2.50;;
73100;SDS011;61288;53.446;-2.266;2023-06-14T07:27:53;6.97;;;2.45;;
73100;SDS011;61288;53.446;-2.266;2023-06-14T07:30:19;8.52;;;2.70;;
73100;SDS011;61288;53.446;-2.266;2023-06-14T07:32:44;7.70;;;2.47;;
73100;SDS011;61288;53.446;-2.266;2023-06-14T07:35:21;11.13;;;2.85;;
73100;SDS011;61288;53.446;-2.266;2023-06-14T07:37:47;9.13;;;2.50;;
73100;SDS011;61288;53.446;-2.266;2023-06-14T07:40:19;8.15;;;2.35;;
73100;SDS011;61288;53.446;-2.266;2023-06-14T07:42:45;7.78;;;2.53;;
73100;SDS011;61288;53.446;-2.266;2023-06-14T07:45:12;7.85;;;2.80;;
73100;SDS011;61288;53.446;-2.266;2023-06-14T07:47:43;10.68;;;2.85;;
73100;SDS011;61288;53.446;-2.266;2023-06-14T07:50:09;12.52;;;2.90;;
73100;SDS011;61288;53.446;-2.266;2023-06-14T07:52:35;8.27;;;2.40;;
73100;SDS011;61288;53.446;-2.266;2023-06-14T07:55:03;12.68;;;2.95;;
73100;SDS011;61288;53.446;-2.266;2023-06-14T07:57:36;7.78;;;2.45;;
73100;SDS011;61288;53.446;-2.266;2023-06-14T08:00:03;9.05;;;2.58;;
73100;SDS011;61288;53.446;-2.266;2023-06-14T08:02:48;9.45;;;2.65;;
73100;SDS011;61288;53.446;-2.266;2023-06-14T08:05:27;8.48;;;2.58;;
73100;SDS011;61288;53.446;-2.266;2023-06-14T08:08:12;8.82;;;2.63;;
73100;SDS011;61288;53.446;-2.266;2023-06-14T08:10:48;9.02;;;3.00;;
73100;SDS011;61288;53.446;-2.266;2023-06-14T08:13:14;12.02;;;2.35;;
73100;SDS011;61288;53.446;-2.266;2023-06-14T08:15:52;7.53;;;2.20;;
73100;SDS011;61288;53.446;-2.266;2023-06-14T08:18:34;6.93;;;2.30;;
73100;SDS011;61288;53.446;-2.266;2023-06-14T08:21:01;8.05;;;2.30;;
73100;SDS011;61288;53.446;-2.266;2023-06-14T08:23:28;9.07;;;2.47;;
73100;SDS011;61288;53.446;-2.266;2023-06-14T08:25:56;10.13;;;2.67;;
73100;SDS011;61288;53.446;-2.266;2023-06-14T08:28:23;7.55;;;2.15;;
73100;SDS011;61288;53.446;-2.266;2023-06-14T08:30:49;8.38;;;2.45;;
73100;SDS011;61288;53.446;-2.266;2023-06-14T08:33:15;6.43;;;2.20;;
73100;SDS011;61288;53.446;-2.266;2023-06-14T08:35:40;10.73;;;2.33;;
73100;SDS011;61288;53.446;-2.266;2023-06-14T08:38:06;7.20;;;2.28;;
73100;SDS011;61288;53.446;-2.266;2023-06-14T08:40:31;6.35;;;2.10;;
73100;SDS011;61288;53.446;-2.266;2023-06-14T08:43:03;6.43;;;1.95;;
73100;SDS011;61288;53.446;-2.266;2023-06-14T08:45:28;7.38;;;2.33;;
73100;SDS011;61288;53.446;-2.266;2023-06-14T08:47:54;9.80;;;2.30;;
73100;SDS011;61288;53.446;-2.266;2023-06-14T08:50:25;8.60;;;2.40;;
73100;SDS011;61288;53.446;-2.266;2023-06-14T08:52:53;8.20;;;2.30;;
73100;SDS011;61288;53.446;-2.266;2023-06-14T08:55:22;7.20;;;2.28;;
73100;SDS011;61288;53.446;-2.266;2023-06-14T08:57:52;9.00;;;2.20;;
73100;SDS011;61288;53.446;-2.266;2023-06-14T09:00:19;9.52;;;2.50;;
73100;SDS011;61288;53.446;-2.266;2023-06-14T09:02:45;14.20;;;2.60;;
73100;SDS011;61288;53.446;-2.266;2023-06-14T09:05:11;7.95;;;2.63;;
73100;SDS011;61288;53.446;-2.266;2023-06-14T09:07:43;8.13;;;2.35;;
73100;SDS011;61288;53.446;-2.266;2023-06-14T09:10:10;8.00;;;2.30;;
73100;SDS011;61288;53.446;-2.266;2023-06-14T09:12:37;8.77;;;2.40;;
73100;SDS011;61288;53.446;-2.266;2023-06-14T09:15:03;7.47;;;2.00;;
73100;SDS011;61288;53.446;-2.266;2023-06-14T09:17:40;6.38;;;2.00;;
73100;SDS011;61288;53.446;-2.266;2023-06-14T09:20:06;11.85;;;2.80;;
73100;SDS011;61288;53.446;-2.266;2023-06-14T09:22:38;8.50;;;2.25;;
73100;SDS011;61288;53.446;-2.266;2023-06-14T09:25:05;9.13;;;2.47;;
73100;SDS011;61288;53.446;-2.266;2023-06-14T09:27:31;7.55;;;2.38;;
73100;SDS011;61288;53.446;-2.266;2023-06-14T09:29:57;10.55;;;2.70;;
73100;SDS011;61288;53.446;-2.266;2023-06-14T09:32:23;12.18;;;2.50;;
73100;SDS011;61288;53.446;-2.266;2023-06-14T09:34:49;9.65;;;2.65;;
73100;SDS011;61288;53.446;-2.266;2023-06-14T09:37:28;6.20;;;2.40;;
73100;SDS011;61288;53.446;-2.266;2023-06-14T09:39:54;9.43;;;2.60;;
73100;SDS011;61288;53.446;-2.266;2023-06-14T09:42:20;6.63;;;2.35;;
73100;SDS011;61288;53.446;-2.266;2023-06-14T09:44:49;8.90;;;2.55;;
73100;SDS011;61288;53.446;-2.266;2023-06-14T09:47:15;8.43;;;2.65;;
73100;SDS011;61288;53.446;-2.266;2023-06-14T09:49:41;7.47;;;2.42;;
73100;SDS011;61288;53.446;-2.266;2023-06-14T09:52:13;8.73;;;2.72;;
73100;SDS011;61288;53.446;-2.266;2023-06-14T09:54:41;10.27;;;2.83;;
73100;SDS011;61288;53.446;-2.266;2023-06-14T09:57:21;8.35;;;2.67;;
73100;SDS011;61288;53.446;-2.266;2023-06-14T09:59:56;7.78;;;2.45;;
73100;SDS011;61288;53.446;-2.266;2023-06-14T10:02:30;9.35;;;2.20;;
73100;SDS011;61288;53.446;-2.266;2023-06-14T10:07:33;11.27;;;2.70;;
73100;SDS011;61288;53.446;-2.266;2023-06-14T10:10:20;7.10;;;2.50;;
73100;SDS011;61288;53.446;-2.266;2023-06-14T10:12:46;8.93;;;3.15;;
73100;SDS011;61288;53.446;-2.266;2023-06-14T10:15:15;9.40;;;3.00;;
73100;SDS011;61288;53.446;-2.266;2023-06-14T10:20:19;8.70;;;2.97;;
73100;SDS011;61288;53.446;-2.266;2023-06-14T10:22:56;7.03;;;2.58;;
73100;SDS011;61288;53.446;-2.266;2023-06-14T10:25:28;9.77;;;2.78;;
73100;SDS011;61288;53.446;-2.266;2023-06-14T10:33:29;10.85;;;2.95;;
73100;SDS011;61288;53.446;-2.266;2023-06-14T10:39:07;9.00;;;2.72;;
73100;SDS011;61288;53.446;-2.266;2023-06-14T10:41:42;9.13;;;2.75;;
73100;SDS011;61288;53.446;-2.266;2023-06-14T10:46:46;8.45;;;2.83;;
73100;SDS011;61288;53.446;-2.266;2023-06-14T10:49:15;8.63;;;2.58;;
73100;SDS011;61288;53.446;-2.266;2023-06-14T10:51:51;9.75;;;2.83;;
73100;SDS011;61288;53.446;-2.266;2023-06-14T10:54:20;8.45;;;3.05;;
73100;SDS011;61288;53.446;-2.266;2023-06-14T10:56:46;11.18;;;3.10;;
73100;SDS011;61288;53.446;-2.266;2023-06-14T10:59:16;8.85;;;2.85;;
73100;SDS011;61288;53.446;-2.266;2023-06-14T11:04:17;10.15;;;3.00;;
73100;SDS011;61288;53.446;-2.266;2023-06-14T11:06:49;11.40;;;3.42;;
73100;SDS011;61288;53.446;-2.266;2023-06-14T11:09:39;8.80;;;3.03;;
73100;SDS011;61288;53.446;-2.266;2023-06-14T11:12:40;10.88;;;3.05;;
73100;SDS011;61288;53.446;-2.266;2023-06-14T11:15:11;9.05;;;3.58;;
73100;SDS011;61288;53.446;-2.266;2023-06-14T11:17:36;8.30;;;3.10;;
73100;SDS011;61288;53.446;-2.266;2023-06-14T11:20:11;8.27;;;2.88;;
73100;SDS011;61288;53.446;-2.266;2023-06-14T11:22:43;10.43;;;3.20;;
73100;SDS011;61288;53.446;-2.266;2023-06-14T11:25:10;8.65;;;3.13;;
73100;SDS011;61288;53.446;-2.266;2023-06-14T11:27:38;9.13;;;3.08;;
73100;SDS011;61288;53.446;-2.266;2023-06-14T11:30:06;12.55;;;3.08;;
73100;SDS011;61288;53.446;-2.266;2023-06-14T11:32:32;11.48;;;2.95;;
73100;SDS011;61288;53.446;-2.266;2023-06-14T11:34:58;9.80;;;2.90;;
73100;SDS011;61288;53.446;-2.266;2023-06-14T11:37:27;10.57;;;2.70;;
73100;SDS011;61288;53.446;-2.266;2023-06-14T11:39:59;8.65;;;3.00;;
73100;SDS011;61288;53.446;-2.266;2023-06-14T11:42:28;12.57;;;3.42;;
73100;SDS011;61288;53.446;-2.266;2023-06-14T11:44:55;10.00;;;2.88;;
73100;SDS011;61288;53.446;-2.266;2023-06-14T11:47:21;9.32;;;3.47;;
73100;SDS011;61288;53.446;-2.266;2023-06-14T11:49:47;10.32;;;2.95;;
73100;SDS011;61288;53.446;-2.266;2023-06-14T11:52:13;8.63;;;2.67;;
73100;SDS011;61288;53.446;-2.266;2023-06-14T11:54:39;9.45;;;3.10;;
73100;SDS011;61288;53.446;-2.266;2023-06-14T11:57:08;11.10;;;3.33;;
73100;SDS011;61288;53.446;-2.266;2023-06-14T11:59:38;10.77;;;3.60;;
73100;SDS011;61288;53.446;-2.266;2023-06-14T12:02:04;12.00;;;3.72;;
73100;SDS011;61288;53.446;-2.266;2023-06-14T12:04:31;11.60;;;3.30;;
73100;SDS011;61288;53.446;-2.266;2023-06-14T12:06:57;10.18;;;3.30;;
73100;SDS011;61288;53.446;-2.266;2023-06-14T12:09:23;13.48;;;3.13;;
73100;SDS011;61288;53.446;-2.266;2023-06-14T12:11:51;10.10;;;2.90;;
73100;SDS011;61288;53.446;-2.266;2023-06-14T12:14:28;9.18;;;3.10;;
73100;SDS011;61288;53.446;-2.266;2023-06-14T12:17:03;16.27;;;4.25;;
73100;SDS011;61288;53.446;-2.266;2023-06-14T12:19:30;12.93;;;2.70;;
73100;SDS011;61288;53.446;-2.266;2023-06-14T12:21:56;10.00;;;2.65;;
73100;SDS011;61288;53.446;-2.266;2023-06-14T12:24:28;13.43;;;2.97;;
73100;SDS011;61288;53.446;-2.266;2023-06-14T12:26:57;9.15;;;3.15;;
73100;SDS011;61288;53.446;-2.266;2023-06-14T12:29:24;14.38;;;3.10;;
73100;SDS011;61288;53.446;-2.266;2023-06-14T12:31:50;9.02;;;2.67;;
73100;SDS011;61288;53.446;-2.266;2023-06-14T12:34:16;9.90;;;3.10;;
73100;SDS011;61288;53.446;-2.266;2023-06-14T12:36:41;11.57;;;3.35;;
73100;SDS011;61288;53.446;-2.266;2023-06-14T12:39:09;13.05;;;3.10;;
73100;SDS011;61288;53.446;-2.266;2023-06-14T12:41:35;12.20;;;3.42;;
73100;SDS011;61288;53.446;-2.266;2023-06-14T12:44:02;14.85;;;3.30;;
73100;SDS011;61288;53.446;-2.266;2023-06-14T12:46:30;12.10;;;3.65;;
73100;SDS011;61288;53.446;-2.266;2023-06-14T12:48:56;10.75;;;3.47;;
73100;SDS011;61288;53.446;-2.266;2023-06-14T12:51:22;7.75;;;2.67;;
73100;SDS011;61288;53.446;-2.266;2023-06-14T12:53:47;9.63;;;2.78;;
73100;SDS011;61288;53.446;-2.266;2023-06-14T12:56:14;9.93;;;2.78;;
73100;SDS011;61288;53.446;-2.266;2023-06-14T12:58:41;10.35;;;2.97;;
73100;SDS011;61288;53.446;-2.266;2023-06-14T13:01:07;13.52;;;3.53;;
73100;SDS011;61288;53.446;-2.266;2023-06-14T13:03:32;14.52;;;3.72;;
73100;SDS011;61288;53.446;-2.266;2023-06-14T13:05:59;10.75;;;2.95;;
73100;SDS011;61288;53.446;-2.266;2023-06-14T13:08:25;8.23;;;3.00;;
73100;SDS011;61288;53.446;-2.266;2023-06-14T13:10:51;9.60;;;3.17;;
73100;SDS011;61288;53.446;-2.266;2023-06-14T13:13:17;11.18;;;3.20;;
73100;SDS011;61288;53.446;-2.266;2023-06-14T13:15:42;8.77;;;2.72;;
73100;SDS011;61288;53.446;-2.266;2023-06-14T13:18:09;10.55;;;2.95;;
73100;SDS011;61288;53.446;-2.266;2023-06-14T13:20:35;12.52;;;3.15;;
73100;SDS011;61288;53.446;-2.266;2023-06-14T13:23:01;10.02;;;2.95;;
73100;SDS011;61288;53.446;-2.266;2023-06-14T13:25:28;8.15;;;2.60;;
73100;SDS011;61288;53.446;-2.266;2023-06-14T13:27:54;12.68;;;2.88;;
73100;SDS011;61288;53.446;-2.266;2023-06-14T13:30:19;9.20;;;2.70;;
73100;SDS011;61288;53.446;-2.266;2023-06-14T13:32:45;10.43;;;2.72;;
73100;SDS011;61288;53.446;-2.266;2023-06-14T13:35:10;7.70;;;2.60;;
73100;SDS011;61288;53.446;-2.266;2023-06-14T13:37:36;8.43;;;2.58;;
73100;SDS011;61288;53.446;-2.266;2023-06-14T13:40:01;6.70;;;2.40;;
73100;SDS011;61288;53.446;-2.266;2023-06-14T13:42:27;7.22;;;2.72;;
73100;SDS011;61288;53.446;-2.266;2023-06-14T13:44:54;8.82;;;3.15;;
73100;SDS011;61288;53.446;-2.266;2023-06-14T13:47:19;11.20;;;2.90;;
73100;SDS011;61288;53.446;-2.266;2023-06-14T13:49:45;8.50;;;2.50;;
73100;SDS011;61288;53.446;-2.266;2023-06-14T13:52:10;10.35;;;2.72;;
73100;SDS011;61288;53.446;-2.266;2023-06-14T13:54:36;8.95;;;2.85;;
73100;SDS011;61288;53.446;-2.266;2023-06-14T13:57:02;7.88;;;2.70;;
73100;SDS011;61288;53.446;-2.266;2023-06-14T13:59:27;9.95;;;2.63;;
73100;SDS011;61288;53.446;-2.266;2023-06-14T14:01:53;10.27;;;2.75;;
73100;SDS011;61288;53.446;-2.266;2023-06-14T14:04:18;10.70;;;2.90;;
73100;SDS011;61288;53.446;-2.266;2023-06-14T14:06:44;8.77;;;2.80;;
73100;SDS011;61288;53.446;-2.266;2023-06-14T14:09:10;8.45;;;2.50;;
73100;SDS011;61288;53.446;-2.266;2023-06-14T14:11:36;9.30;;;2.63;;
73100;SDS011;61288;53.446;-2.266;2023-06-14T14:14:02;7.82;;;2.70;;
73100;SDS011;61288;53.446;-2.266;2023-06-14T14:16:27;9.30;;;3.10;;
73100;SDS011;61288;53.446;-2.266;2023-06-14T14:18:53;11.63;;;2.70;;
73100;SDS011;61288;53.446;-2.266;2023-06-14T14:21:18;10.02;;;3.00;;
73100;SDS011;61288;53.446;-2.266;2023-06-14T14:23:44;7.78;;;2.50;;
73100;SDS011;61288;53.446;-2.266;2023-06-14T14:26:10;8.43;;;2.42;;
73100;SDS011;61288;53.446;-2.266;2023-06-14T14:28:36;9.50;;;2.65;;
73100;SDS011;61288;53.446;-2.266;2023-06-14T14:31:01;12.45;;;2.70;;
73100;SDS011;61288;53.446;-2.266;2023-06-14T14:33:27;8.93;;;2.83;;
73100;SDS011;61288;53.446;-2.266;2023-06-14T14:35:52;8.35;;;2.78;;
73100;SDS011;61288;53.446;-2.266;2023-06-14T14:38:17;14.98;;;3.00;;
73100;SDS011;61288;53.446;-2.266;2023-06-14T14:40:43;9.80;;;2.65;;
73100;SDS011;61288;53.446;-2.266;2023-06-14T14:43:10;9.80;;;2.90;;
73100;SDS011;61288;53.446;-2.266;2023-06-14T14:45:36;8.00;;;2.75;;
73100;SDS011;61288;53.446;-2.266;2023-06-14T14:48:02;9.20;;;2.67;;
73100;SDS011;61288;53.446;-2.266;2023-06-14T14:50:28;10.07;;;2.83;;
73100;SDS011;61288;53.446;-2.266;2023-06-14T14:52:53;8.07;;;2.42;;
73100;SDS011;61288;53.446;-2.266;2023-06-14T14:55:19;8.82;;;2.60;;
73100;SDS011;61288;53.446;-2.266;2023-06-14T14:57:45;9.18;;;2.60;;
73100;SDS011;61288;53.446;-2.266;2023-06-14T15:00:13;8.98;;;2.70;;
73100;SDS011;61288;53.446;-2.266;2023-06-14T15:02:39;8.02;;;2.80;;
73100;SDS011;61288;53.446;-2.266;2023-06-14T15:05:04;10.32;;;2.60;;
73100;SDS011;61288;53.446;-2.266;2023-06-14T15:07:30;12.95;;;2.63;;
73100;SDS011;61288;53.446;-2.266;2023-06-14T15:09:56;11.05;;;2.50;;
73100;SDS011;61288;53.446;-2.266;2023-06-14T15:12:22;8.80;;;2.60;;
73100;SDS011;61288;53.446;-2.266;2023-06-14T15:14:51;8.80;;;2.58;;
73100;SDS011;61288;53.446;-2.266;2023-06-14T15:17:18;8.35;;;2.40;;
73100;SDS011;61288;53.446;-2.266;2023-06-14T15:19:45;7.38;;;2.05;;
73100;SDS011;61288;53.446;-2.266;2023-06-14T15:22:12;9.65;;;2.30;;
73100;SDS011;61288;53.446;-2.266;2023-06-14T15:24:39;8.50;;;2.45;;
73100;SDS011;61288;53.446;-2.266;2023-06-14T15:27:05;8.43;;;2.50;;
73100;SDS011;61288;53.446;-2.266;2023-06-14T15:29:31;9.38;;;2.83;;
73100;SDS011;61288;53.446;-2.266;2023-06-14T15:31:56;9.00;;;2.55;;
73100;SDS011;61288;53.446;-2.266;2023-06-14T15:34:23;8.20;;;2.25;;
73100;SDS011;61288;53.446;-2.266;2023-06-14T15:36:48;9.15;;;2.13;;
73100;SDS011;61288;53.446;-2.266;2023-06-14T15:39:15;8.43;;;2.25;;
73100;SDS011;61288;53.446;-2.266;2023-06-14T15:41:43;7.45;;;2.30;;
73100;SDS011;61288;53.446;-2.266;2023-06-14T15:44:09;7.65;;;2.08;;
73100;SDS011;61288;53.446;-2.266;2023-06-14T15:46:34;7.82;;;2.40;;
73100;SDS011;61288;53.446;-2.266;2023-06-14T15:49:00;7.45;;;2.30;;
73100;SDS011;61288;53.446;-2.266;2023-06-14T15:51:26;7.85;;;2.47;;
73100;SDS011;61288;53.446;-2.266;2023-06-14T15:53:51;8.50;;;2.40;;
73100;SDS011;61288;53.446;-2.266;2023-06-14T15:56:17;9.00;;;2.15;;
73100;SDS011;61288;53.446;-2.266;2023-06-14T15:58:43;6.32;;;2.15;;
73100;SDS011;61288;53.446;-2.266;2023-06-14T16:01:08;8.80;;;2.33;;
73100;SDS011;61288;53.446;-2.266;2023-06-14T16:03:34;6.88;;;2.20;;
73100;SDS011;61288;53.446;-2.266;2023-06-14T16:05:59;8.88;;;2.20;;
73100;SDS011;61288;53.446;-2.266;2023-06-14T16:08:25;7.53;;;2.03;;
73100;SDS011;61288;53.446;-2.266;2023-06-14T16:10:51;7.90;;;2.30;;
73100;SDS011;61288;53.446;-2.266;2023-06-14T16:13:17;9.40;;;2.22;;
73100;SDS011;61288;53.446;-2.266;2023-06-14T16:15:42;7.57;;;2.15;;
73100;SDS011;61288;53.446;-2.266;2023-06-14T16:18:08;9.77;;;2.50;;
73100;SDS011;61288;53.446;-2.266;2023-06-14T16:20:33;6.13;;;1.90;;
73100;SDS011;61288;53.446;-2.266;2023-06-14T16:22:58;7.38;;;2.38;;
73100;SDS011;61288;53.446;-2.266;2023-06-14T16:25:24;6.93;;;2.22;;
73100;SDS011;61288;53.446;-2.266;2023-06-14T16:27:49;9.38;;;2.17;;
73100;SDS011;61288;53.446;-2.266;2023-06-14T16:30:15;7.05;;;2.00;;
73100;SDS011;61288;53.446;-2.266;2023-06-14T16:32:41;6.40;;;1.92;;
73100;SDS011;61288;53.446;-2.266;2023-06-14T16:35:07;5.40;;;1.85;;
73100;SDS011;61288;53.446;-2.266;2023-06-14T16:37:32;8.43;;;2.63;;
73100;SDS011;61288;53.446;-2.266;2023-06-14T16:39:58;8.68;;;2.15;;
73100;SDS011;61288;53.446;-2.266;2023-06-14T16:42:23;9.50;;;2.40;;
73100;SDS011;61288;53.446;-2.266;2023-06-14T16:44:49;6.72;;;1.80;;
73100;SDS011;61288;53.446;-2.266;2023-06-14T16:47:14;12.52;;;2.30;;
73100;SDS011;61288;53.446;-2.266;2023-06-14T16:49:40;6.50;;;1.85;;
73100;SDS011;61288;53.446;-2.266;2023-06-14T16:52:05;10.23;;;2.67;;
73100;SDS011;61288;53.446;-2.266;2023-06-14T16:54:31;4.88;;;1.90;;
73100;SDS011;61288;53.446;-2.266;2023-06-14T16:56:56;5.68;;;1.90;;
73100;SDS011;61288;53.446;-2.266;2023-06-14T16:59:22;8.27;;;1.90;;
73100;SDS011;61288;53.446;-2.266;2023-06-14T17:01:49;6.47;;;2.03;;